Silva, Missouri
Current Conditions -  °F | °C
As of 12:53 AM on Wednesday 22 Oct 2014 (Local Time) from KPOF Reporting Station
Clear Clear  
Wind Chill: 11°   Ceiling: Unl
Heat Index: 11°   Visibility: 10mi
Dew Point:   Wind: 6mph
Humidity: 74%   Direction: 30°NNE
Pressure: 30.15"   Gusts: NA
Location:  37.18°N, 90.46°W
Report Text: KPOF 220553Z AUTO 03005KT 10SM CLR 11/06 A3015 RMK AO2 SLP209 T01060061 10172 20089 402440089 50005
Loading
Personal Weather Stations






























Interactive Weather Map
Tropical Storm Tracking
New forecast layout! Learn more

10-Day Weather Forecast

Advertisements
Track Severe Weather on mobile